Hopland, California
Current Conditions -  °F | °C
As of 6:35 PM on Friday 28 Nov 2014 (Local Time) from KUKI Reporting Station
Moderate Rain Moderate Rain  
Wind Chill: 53°   Ceiling: 1700
Heat Index: 53°   Visibility: 3mi
Dew Point: 51°   Wind: 5mph
Humidity: 93%   Direction: 180°S
Pressure: 29.84"   Gusts: NA
Location:  38.97°N, 123.12°W
Report Text: KUKI 290235Z AUTO 18004KT 3SM RA BR SCT011 BKN017 OVC027 12/11 A2984 RMK AO2 P0002 T01170106
Loading
Personal Weather Stations






























Interactive Weather Map New forecast layout! Learn more

10-Day Weather Forecast

Advertisements
Track Severe Weather on mobile